Panagia Faneromeni — SW9785 — position and weather

sailwx.info

Track history (hours):
 
Tides and Currents Weather Stations Pressure Air Temp Water Temp Dewpoint Dewpoint Depression Visibility Wind Speed Wind Dir Waves Ship Positions

Panagia Faneromeni

Last reported at 2014-Dec-18 15:31 UTC. Time now 2014-Dec-18 16:23 UTC.
Position N 36°47' E 024°35'.

Length 33 m; draft 2 m.

Type: Ship. MMSI: 237071900.

Date/timePositionNaut miles runAvg speedWind from/ knotsBaromVisibWave heightAir tempDewpointWater temp
2014-Dec-18 15:31N 36°47' E 024°35'0 0.0
2014-Dec-18 14:30N 36°47' E 024°35'0 0.0
2014-Dec-18 13:24N 36°47' E 024°35'2 1.9
2014-Dec-18 12:20N 36°46' E 024°33'2 1.6
2014-Dec-18 11:05N 36°47' E 024°35'0 0.0
2014-Dec-18 10:32N 36°47' E 024°35'0 0.0
2014-Dec-18 09:31N 36°47' E 024°35'0 0.0
2014-Dec-18 08:18N 36°47' E 024°35'0 0.0
2014-Dec-18 07:13N 36°47' E 024°35'0 0.0
2014-Dec-18 06:31N 36°47' E 024°35'1 1.1
2014-Dec-18 05:33N 36°46' E 024°34'0 0.3
2014-Dec-18 04:33N 36°46' E 024°34'2 1.4
2014-Dec-18 03:31N 36°46' E 024°32'0 0.0
2014-Dec-18 02:31N 36°46' E 024°32'0 0.0
2014-Dec-18 01:19N 36°46' E 024°32'0 0.0
2014-Dec-18 00:25N 36°46' E 024°32'0 0.0
2014-Dec-17 23:31N 36°46' E 024°32'0 0.0
2014-Dec-17 22:30N 36°46' E 024°32'0 0.0
2014-Dec-17 21:31N 36°46' E 024°32'0 0.0
2014-Dec-17 20:31N 36°46' E 024°32'0 0.0
2014-Dec-17 19:31N 36°46' E 024°32'0 0.0
2014-Dec-17 18:31N 36°46' E 024°32'0 0.0
2014-Dec-17 17:31N 36°46' E 024°32'0 0.0
2014-Dec-17 16:25N 36°46' E 024°32'0 0.0
2014-Dec-17 15:31N 36°46' E 024°32'0 0.0
2014-Dec-17 14:30N 36°46' E 024°32'0 0.0
2014-Dec-17 13:30N 36°46' E 024°32'0 0.0
2014-Dec-17 12:30N 36°46' E 024°32'0 0.0
2014-Dec-17 11:30N 36°46' E 024°32'0 0.0
2014-Dec-17 10:30N 36°46' E 024°32'3 2.7
2014-Dec-17 09:30N 36°47' E 024°35'0 0.1
2014-Dec-17 08:33N 36°47' E 024°35'0 0.0
2014-Dec-16 13:24N 36°47' E 024°35'2 1.4
2014-Dec-16 12:18N 36°46' E 024°33'2 2.2
2014-Dec-16 11:32N 36°47' E 024°35'0 0.0
2014-Dec-16 10:32N 36°47' E 024°35'0 0.0
2014-Dec-16 09:31N 36°47' E 024°35'0 0.0
2014-Dec-16 08:30N 36°47' E 024°35'1 0.4
2014-Dec-16 05:33N 36°46' E 024°34'1 1.0
2014-Dec-16 04:21N 36°47' E 024°35'0 0.0
2014-Dec-16 02:15N 36°47' E 024°35'0 0.0
2014-Dec-16 01:09N 36°47' E 024°35'0 0.0
2014-Dec-15 23:33N 36°47' E 024°35'0 0.0
2014-Dec-15 22:33N 36°47' E 024°35'0 0.0
2014-Dec-15 21:33N 36°47' E 024°35'0 0.0
2014-Dec-15 20:33N 36°47' E 024°35'0 0.0
2014-Dec-15 19:27N 36°47' E 024°35'0 0.0
2014-Dec-15 18:33N 36°47' E 024°35'0 0.0
2014-Dec-15 17:27N 36°47' E 024°35'0 0.0
2014-Dec-15 16:33N 36°47' E 024°35'0 0.0
2014-Dec-15 15:33N 36°47' E 024°35'0 0.0
2014-Dec-15 14:27N 36°47' E 024°35'0 0.0
2014-Dec-15 13:33N 36°47' E 024°35'1 0.9
2014-Dec-15 12:13N 36°46' E 024°34'1 1.8
2014-Dec-15 11:33N 36°47' E 024°35'0 0.0
2014-Dec-15 10:33N 36°47' E 024°35'0 0.0
2014-Dec-15 09:33N 36°47' E 024°35'0 0.0
2014-Dec-15 08:33N 36°47' E 024°35'0 0.0
2014-Dec-15 07:29N 36°47' E 024°35'0 0.0
2014-Dec-15 06:11N 36°47' E 024°35'1 1.7
2014-Dec-15 05:33N 36°46' E 024°34'1 1.0
2014-Dec-15 04:29N 36°47' E 024°35'0 0.0
2014-Dec-15 03:29N 36°47' E 024°35'0 0.0
2014-Dec-15 02:29N 36°47' E 024°35'0 0.0
2014-Dec-15 01:23N 36°47' E 024°35'0 0.0
2014-Dec-15 00:29N 36°47' E 024°35'0 0.0
2014-Dec-14 23:29N 36°47' E 024°35'0 0.0
2014-Dec-14 22:23N 36°47' E 024°35'0 0.0
2014-Dec-14 21:11N 36°47' E 024°35'0 0.0
2014-Dec-14 20:32N 36°47' E 024°35'0 0.0
2014-Dec-14 19:29N 36°47' E 024°35'0 0.0
2014-Dec-14 18:29N 36°47' E 024°35'0 0.0
2014-Dec-14 17:23N 36°47' E 024°35'0 0.0
2014-Dec-14 16:29N 36°47' E 024°35'0 0.0
2014-Dec-14 15:29N 36°47' E 024°35'0 0.0
2014-Dec-14 14:30N 36°47' E 024°35'0 0.0
2014-Dec-14 13:24N 36°47' E 024°35'3 2.7
2014-Dec-14 12:25N 36°46' E 024°32'3 2.9
2014-Dec-14 11:30N 36°47' E 024°35'0 0.0
2014-Dec-14 10:30N 36°47' E 024°35'0 0.0
2014-Dec-14 09:30N 36°47' E 024°35'0 0.0
2014-Dec-14 08:32N 36°47' E 024°35'0 0.0
2014-Dec-14 07:32N 36°47' E 024°35'1 0.0
2014-Dec-12 07:13N 36°47' E 024°36'0 0.0
2014-Dec-10 13:18N 36°47' E 024°36'4 4.7
2014-Dec-10 12:28N 36°46' E 024°32'3 2.4
2014-Dec-10 11:18N 36°47' E 024°35'0 0.0
2014-Dec-10 10:30N 36°47' E 024°35'0 0.0
2014-Dec-10 09:30N 36°47' E 024°35'0 0.0
2014-Dec-10 08:32N 36°47' E 024°35'0 0.0
2014-Dec-10 07:32N 36°47' E 024°35'0 0.0
2014-Dec-10 06:32N 36°47' E 024°35'1 1.1
2014-Dec-10 05:33N 36°46' E 024°34'1 1.0
2014-Dec-10 04:33N 36°47' E 024°35'0 0.0
2014-Dec-10 03:33N 36°47' E 024°35'0 0.0
2014-Dec-10 02:33N 36°47' E 024°35'0 0.0
2014-Dec-10 01:33N 36°47' E 024°35'0 0.0
2014-Dec-10 00:33N 36°47' E 024°35'0 0.0
2014-Dec-09 23:33N 36°47' E 024°35'0 0.0
2014-Dec-09 22:33N 36°47' E 024°35'0 0.0
2014-Dec-09 21:33N 36°47' E 024°35'0 0.0
2014-Dec-09 20:33N 36°47' E 024°35'0 0.0
2014-Dec-09 19:33N 36°47' E 024°35'0 0.0
2014-Dec-09 18:33N 36°47' E 024°35'0 0.0
2014-Dec-09 17:33N 36°47' E 024°35'0 0.0
2014-Dec-09 16:33N 36°47' E 024°35'0 0.0
2014-Dec-09 15:33N 36°47' E 024°35'0 0.0
2014-Dec-09 14:33N 36°47' E 024°35'0 0.0
2014-Dec-09 13:33N 36°47' E 024°35'3 2.7
2014-Dec-09 12:33N 36°46' E 024°32'3 2.5
2014-Dec-09 11:27N 36°47' E 024°35'0 0.0
2014-Dec-09 10:33N 36°47' E 024°35'0 0.0
2014-Dec-09 09:30N 36°47' E 024°35'0 0.0
2014-Dec-09 08:29N 36°47' E 024°35'3 2.9
2014-Dec-09 07:32N 36°46' E 024°32'0 0.0
2014-Dec-09 06:32N 36°46' E 024°32'0 0.0
2014-Dec-09 05:29N 36°46' E 024°32'0 0.0
2014-Dec-09 04:32N 36°46' E 024°32'0 0.0
2014-Dec-09 03:23N 36°46' E 024°32'0 0.0
2014-Dec-09 02:29N 36°46' E 024°32'0 0.0
2014-Dec-09 01:29N 36°46' E 024°32'0 0.0
2014-Dec-09 00:29N 36°46' E 024°32'0 0.0
2014-Dec-08 23:29N 36°46' E 024°32'0 0.0
2014-Dec-08 22:29N 36°46' E 024°32'0 0.0
2014-Dec-08 21:29N 36°46' E 024°32'0 0.0
2014-Dec-08 20:29N 36°46' E 024°32'0 0.0
2014-Dec-08 19:29N 36°46' E 024°32'0 0.0
2014-Dec-08 18:23N 36°46' E 024°32'0 0.0
2014-Dec-08 17:29N 36°46' E 024°32'0 0.0
2014-Dec-08 16:32N 36°46' E 024°32'  
Track history (hours):
 
Tides and Currents Weather Stations Pressure Air Temp Water Temp Dewpoint Dewpoint Depression Visibility Wind Speed Wind Dir Waves Ship Positions

Panagia Faneromeni

Last reported at 2014-Dec-18 15:31 UTC. Time now 2014-Dec-18 16:23 UTC.
Position N 36°47' E 024°35'.

Length 33 m; draft 2 m.

Type: Ship. MMSI: 237071900.

Date/timePositionNaut miles runAvg speedWind from/ knotsBaromVisibWave heightAir tempDewpointWater temp
2014-Dec-18 15:31N 36°47' E 024°35'0 0.0
2014-Dec-18 14:30N 36°47' E 024°35'0 0.0
2014-Dec-18 13:24N 36°47' E 024°35'2 1.9
2014-Dec-18 12:20N 36°46' E 024°33'2 1.6
2014-Dec-18 11:05N 36°47' E 024°35'0 0.0
2014-Dec-18 10:32N 36°47' E 024°35'0 0.0
2014-Dec-18 09:31N 36°47' E 024°35'0 0.0
2014-Dec-18 08:18N 36°47' E 024°35'0 0.0
2014-Dec-18 07:13N 36°47' E 024°35'0 0.0
2014-Dec-18 06:31N 36°47' E 024°35'1 1.1
2014-Dec-18 05:33N 36°46' E 024°34'0 0.3
2014-Dec-18 04:33N 36°46' E 024°34'2 1.4
2014-Dec-18 03:31N 36°46' E 024°32'0 0.0
2014-Dec-18 02:31N 36°46' E 024°32'0 0.0
2014-Dec-18 01:19N 36°46' E 024°32'0 0.0
2014-Dec-18 00:25N 36°46' E 024°32'0 0.0
2014-Dec-17 23:31N 36°46' E 024°32'0 0.0
2014-Dec-17 22:30N 36°46' E 024°32'0 0.0
2014-Dec-17 21:31N 36°46' E 024°32'0 0.0
2014-Dec-17 20:31N 36°46' E 024°32'0 0.0
2014-Dec-17 19:31N 36°46' E 024°32'0 0.0
2014-Dec-17 18:31N 36°46' E 024°32'0 0.0
2014-Dec-17 17:31N 36°46' E 024°32'0 0.0
2014-Dec-17 16:25N 36°46' E 024°32'0 0.0
2014-Dec-17 15:31N 36°46' E 024°32'0 0.0
2014-Dec-17 14:30N 36°46' E 024°32'0 0.0
2014-Dec-17 13:30N 36°46' E 024°32'0 0.0
2014-Dec-17 12:30N 36°46' E 024°32'0 0.0
2014-Dec-17 11:30N 36°46' E 024°32'0 0.0
2014-Dec-17 10:30N 36°46' E 024°32'3 2.7
2014-Dec-17 09:30N 36°47' E 024°35'0 0.1
2014-Dec-17 08:33N 36°47' E 024°35'0 0.0
2014-Dec-16 13:24N 36°47' E 024°35'2 1.4
2014-Dec-16 12:18N 36°46' E 024°33'2 2.2
2014-Dec-16 11:32N 36°47' E 024°35'0 0.0
2014-Dec-16 10:32N 36°47' E 024°35'0 0.0
2014-Dec-16 09:31N 36°47' E 024°35'0 0.0
2014-Dec-16 08:30N 36°47' E 024°35'1 0.4
2014-Dec-16 05:33N 36°46' E 024°34'1 1.0
2014-Dec-16 04:21N 36°47' E 024°35'0 0.0
2014-Dec-16 02:15N 36°47' E 024°35'0 0.0
2014-Dec-16 01:09N 36°47' E 024°35'0 0.0
2014-Dec-15 23:33N 36°47' E 024°35'0 0.0
2014-Dec-15 22:33N 36°47' E 024°35'0 0.0
2014-Dec-15 21:33N 36°47' E 024°35'0 0.0
2014-Dec-15 20:33N 36°47' E 024°35'0 0.0
2014-Dec-15 19:27N 36°47' E 024°35'0 0.0
2014-Dec-15 18:33N 36°47' E 024°35'0 0.0
2014-Dec-15 17:27N 36°47' E 024°35'0 0.0
2014-Dec-15 16:33N 36°47' E 024°35'0 0.0
2014-Dec-15 15:33N 36°47' E 024°35'0 0.0
2014-Dec-15 14:27N 36°47' E 024°35'0 0.0
2014-Dec-15 13:33N 36°47' E 024°35'1 0.9
2014-Dec-15 12:13N 36°46' E 024°34'1 1.8
2014-Dec-15 11:33N 36°47' E 024°35'0 0.0
2014-Dec-15 10:33N 36°47' E 024°35'0 0.0
2014-Dec-15 09:33N 36°47' E 024°35'0 0.0
2014-Dec-15 08:33N 36°47' E 024°35'0 0.0
2014-Dec-15 07:29N 36°47' E 024°35'0 0.0
2014-Dec-15 06:11N 36°47' E 024°35'1 1.7
2014-Dec-15 05:33N 36°46' E 024°34'1 1.0
2014-Dec-15 04:29N 36°47' E 024°35'0 0.0
2014-Dec-15 03:29N 36°47' E 024°35'0 0.0
2014-Dec-15 02:29N 36°47' E 024°35'0 0.0
2014-Dec-15 01:23N 36°47' E 024°35'0 0.0
2014-Dec-15 00:29N 36°47' E 024°35'0 0.0
2014-Dec-14 23:29N 36°47' E 024°35'0 0.0
2014-Dec-14 22:23N 36°47' E 024°35'0 0.0
2014-Dec-14 21:11N 36°47' E 024°35'0 0.0
2014-Dec-14 20:32N 36°47' E 024°35'0 0.0
2014-Dec-14 19:29N 36°47' E 024°35'0 0.0
2014-Dec-14 18:29N 36°47' E 024°35'0 0.0
2014-Dec-14 17:23N 36°47' E 024°35'0 0.0
2014-Dec-14 16:29N 36°47' E 024°35'0 0.0
2014-Dec-14 15:29N 36°47' E 024°35'0 0.0
2014-Dec-14 14:30N 36°47' E 024°35'0 0.0
2014-Dec-14 13:24N 36°47' E 024°35'3 2.7
2014-Dec-14 12:25N 36°46' E 024°32'3 2.9
2014-Dec-14 11:30N 36°47' E 024°35'0 0.0
2014-Dec-14 10:30N 36°47' E 024°35'0 0.0
2014-Dec-14 09:30N 36°47' E 024°35'0 0.0
2014-Dec-14 08:32N 36°47' E 024°35'0 0.0
2014-Dec-14 07:32N 36°47' E 024°35'1 0.0
2014-Dec-12 07:13N 36°47' E 024°36'0 0.0
2014-Dec-10 13:18N 36°47' E 024°36'4 4.7
2014-Dec-10 12:28N 36°46' E 024°32'3 2.4
2014-Dec-10 11:18N 36°47' E 024°35'0 0.0
2014-Dec-10 10:30N 36°47' E 024°35'0 0.0
2014-Dec-10 09:30N 36°47' E 024°35'0 0.0
2014-Dec-10 08:32N 36°47' E 024°35'0 0.0
2014-Dec-10 07:32N 36°47' E 024°35'0 0.0
2014-Dec-10 06:32N 36°47' E 024°35'1 1.1
2014-Dec-10 05:33N 36°46' E 024°34'1 1.0
2014-Dec-10 04:33N 36°47' E 024°35'0 0.0
2014-Dec-10 03:33N 36°47' E 024°35'0 0.0
2014-Dec-10 02:33N 36°47' E 024°35'0 0.0
2014-Dec-10 01:33N 36°47' E 024°35'0 0.0
2014-Dec-10 00:33N 36°47' E 024°35'0 0.0
2014-Dec-09 23:33N 36°47' E 024°35'0 0.0
2014-Dec-09 22:33N 36°47' E 024°35'0 0.0
2014-Dec-09 21:33N 36°47' E 024°35'0 0.0
2014-Dec-09 20:33N 36°47' E 024°35'0 0.0
2014-Dec-09 19:33N 36°47' E 024°35'0 0.0
2014-Dec-09 18:33N 36°47' E 024°35'0 0.0
2014-Dec-09 17:33N 36°47' E 024°35'0 0.0
2014-Dec-09 16:33N 36°47' E 024°35'0 0.0
2014-Dec-09 15:33N 36°47' E 024°35'0 0.0
2014-Dec-09 14:33N 36°47' E 024°35'0 0.0
2014-Dec-09 13:33N 36°47' E 024°35'3 2.7
2014-Dec-09 12:33N 36°46' E 024°32'3 2.5
2014-Dec-09 11:27N 36°47' E 024°35'0 0.0
2014-Dec-09 10:33N 36°47' E 024°35'0 0.0
2014-Dec-09 09:30N 36°47' E 024°35'0 0.0
2014-Dec-09 08:29N 36°47' E 024°35'3 2.9
2014-Dec-09 07:32N 36°46' E 024°32'0 0.0
2014-Dec-09 06:32N 36°46' E 024°32'0 0.0
2014-Dec-09 05:29N 36°46' E 024°32'0 0.0
2014-Dec-09 04:32N 36°46' E 024°32'0 0.0
2014-Dec-09 03:23N 36°46' E 024°32'0 0.0
2014-Dec-09 02:29N 36°46' E 024°32'0 0.0
2014-Dec-09 01:29N 36°46' E 024°32'0 0.0
2014-Dec-09 00:29N 36°46' E 024°32'0 0.0
2014-Dec-08 23:29N 36°46' E 024°32'0 0.0
2014-Dec-08 22:29N 36°46' E 024°32'0 0.0
2014-Dec-08 21:29N 36°46' E 024°32'0 0.0
2014-Dec-08 20:29N 36°46' E 024°32'0 0.0
2014-Dec-08 19:29N 36°46' E 024°32'0 0.0
2014-Dec-08 18:23N 36°46' E 024°32'0 0.0
2014-Dec-08 17:29N 36°46' E 024°32'0 0.0
2014-Dec-08 16:32N 36°46' E 024°32'  

Dump ship's entire track history